ARG2433 LIBR-LICR
Flight info
| Callsign | ARG2433 |
|---|---|
| Flight time | 0h 36m |
| Altitude | 31000 |
| Route | KAPPO DCT LAMEB DCT FOSQA DCT RCA |
| Aircraft | B737/M-SDE2E3FGHIRWXY/LB1 |
Departure
| Time | 2026-04-21 17:45 |
|---|---|
| Airport | Brindisi Airport (LIBR) |
Arrival
| Time | 2026-04-21 18:22 |
|---|---|
| Airport | Reggio Calabria Airport (LICR) |
| Time | Latitude | Longitude | Altitude | Speed | Heading |
|---|---|---|---|---|---|
| 2026-04-21 17:33 | 40.65850 | 17.94185 | 36 ft | 0 kts | 345° |
| 2026-04-21 17:40 | 40.65834 | 17.94191 | 36 ft | 4 kts | 342° |
| 2026-04-21 17:40 | 40.65808 | 17.94203 | 36 ft | 4 kts | 339° |
| 2026-04-21 17:40 | 40.65783 | 17.94216 | 37 ft | 4 kts | 340° |
| 2026-04-21 17:40 | 40.65758 | 17.94224 | 37 ft | 4 kts | 9° |
| 2026-04-21 17:41 | 40.65746 | 17.94217 | 37 ft | 1 kts | 53° |
| 2026-04-21 17:41 | 40.65744 | 17.94214 | 38 ft | 1 kts | 53° |
| 2026-04-21 17:42 | 40.65753 | 17.94229 | 37 ft | 7 kts | 53° |
| 2026-04-21 17:43 | 40.65805 | 17.94320 | 34 ft | 18 kts | 53° |
| 2026-04-21 17:43 | 40.65899 | 17.94483 | 32 ft | 27 kts | 53° |
| 2026-04-21 17:43 | 40.66014 | 17.94685 | 32 ft | 22 kts | 63° |
| 2026-04-21 17:43 | 40.65940 | 17.94859 | 32 ft | 25 kts | 137° |
| 2026-04-21 17:44 | 40.65805 | 17.95024 | 31 ft | 28 kts | 136° |
| 2026-04-21 17:44 | 40.65663 | 17.95133 | 32 ft | 20 kts | 200° |
| 2026-04-21 17:44 | 40.65617 | 17.94978 | 32 ft | 24 kts | 304° |
| 2026-04-21 17:44 | 40.65895 | 17.94617 | 33 ft | 95 kts | 316° |
| 2026-04-21 17:45 | 40.66564 | 17.93801 | 35 ft | 160 kts | 316° |
| 2026-04-21 17:45 | 40.67430 | 17.92731 | 555 ft | 176 kts | 316° |
| 2026-04-21 17:45 | 40.68344 | 17.91653 | 1511 ft | 172 kts | 328° |
| 2026-04-21 17:45 | 40.69529 | 17.91238 | 2118 ft | 194 kts | 6° |
| 2026-04-21 17:46 | 40.70835 | 17.91902 | 2634 ft | 217 kts | 41° |
| 2026-04-21 17:46 | 40.71662 | 17.93682 | 2912 ft | 247 kts | 80° |
| 2026-04-21 17:46 | 40.71516 | 17.95975 | 3658 ft | 258 kts | 113° |
| 2026-04-21 17:46 | 40.70448 | 17.97858 | 4610 ft | 262 kts | 146° |
| 2026-04-21 17:47 | 40.68748 | 17.98707 | 5607 ft | 265 kts | 171° |
| 2026-04-21 17:47 | 40.66905 | 17.99045 | 6608 ft | 270 kts | 174° |
| 2026-04-21 17:47 | 40.65013 | 17.99406 | 7521 ft | 279 kts | 173° |
| 2026-04-21 17:47 | 40.63091 | 17.99833 | 8520 ft | 282 kts | 174° |
| 2026-04-21 17:48 | 40.61797 | 17.99869 | 9138 ft | 282 kts | 191° |
| 2026-04-21 17:48 | 40.59400 | 17.98575 | 10370 ft | 282 kts | 218° |
| 2026-04-21 17:48 | 40.57776 | 17.96949 | 10720 ft | 308 kts | 221° |
| 2026-04-21 17:48 | 40.56042 | 17.95094 | 10931 ft | 335 kts | 222° |
| 2026-04-21 17:49 | 40.54186 | 17.93082 | 11312 ft | 353 kts | 222° |
| 2026-04-21 17:49 | 40.52263 | 17.91005 | 12022 ft | 360 kts | 222° |
| 2026-04-21 17:49 | 40.50344 | 17.88948 | 12917 ft | 362 kts | 223° |
| 2026-04-21 17:49 | 40.48383 | 17.86854 | 13733 ft | 366 kts | 223° |
| 2026-04-21 17:50 | 40.46391 | 17.84736 | 14501 ft | 371 kts | 223° |
| 2026-04-21 17:50 | 40.44372 | 17.82599 | 15318 ft | 375 kts | 223° |
| 2026-04-21 17:50 | 40.42328 | 17.80439 | 16119 ft | 379 kts | 223° |
| 2026-04-21 17:50 | 40.40260 | 17.78260 | 16865 ft | 383 kts | 223° |
| 2026-04-21 17:51 | 40.38170 | 17.76057 | 17592 ft | 388 kts | 223° |
| 2026-04-21 17:51 | 40.36055 | 17.73831 | 18285 ft | 392 kts | 223° |
| 2026-04-21 17:51 | 40.33914 | 17.71579 | 18961 ft | 397 kts | 223° |
| 2026-04-21 17:51 | 40.31747 | 17.69303 | 19620 ft | 401 kts | 223° |
| 2026-04-21 17:52 | 40.29564 | 17.67010 | 20251 ft | 405 kts | 223° |
| 2026-04-21 17:52 | 40.27348 | 17.64687 | 20853 ft | 409 kts | 223° |
| 2026-04-21 17:52 | 40.25115 | 17.62347 | 21426 ft | 414 kts | 223° |
| 2026-04-21 17:52 | 40.22857 | 17.59983 | 22000 ft | 417 kts | 223° |
| 2026-04-21 17:53 | 40.20579 | 17.57601 | 22527 ft | 421 kts | 223° |
| 2026-04-21 17:53 | 40.18276 | 17.55196 | 23053 ft | 425 kts | 223° |
| 2026-04-21 17:53 | 40.15955 | 17.52772 | 23558 ft | 429 kts | 223° |
| 2026-04-21 17:53 | 40.13612 | 17.50329 | 24051 ft | 432 kts | 223° |
| 2026-04-21 17:54 | 40.11255 | 17.47872 | 24518 ft | 436 kts | 224° |
| 2026-04-21 17:54 | 40.08873 | 17.45393 | 25012 ft | 438 kts | 224° |
| 2026-04-21 17:54 | 40.06483 | 17.42907 | 25478 ft | 441 kts | 224° |
| 2026-04-21 17:54 | 40.04075 | 17.40405 | 25894 ft | 444 kts | 224° |
| 2026-04-21 17:55 | 40.01651 | 17.37889 | 26316 ft | 446 kts | 224° |
| 2026-04-21 17:55 | 39.99209 | 17.35355 | 26730 ft | 449 kts | 224° |
| 2026-04-21 17:55 | 39.96758 | 17.32813 | 27096 ft | 452 kts | 224° |
| 2026-04-21 17:55 | 39.94319 | 17.30289 | 27440 ft | 455 kts | 224° |
| 2026-04-21 17:56 | 39.91831 | 17.27716 | 27821 ft | 457 kts | 224° |
| 2026-04-21 17:56 | 39.89345 | 17.25149 | 28305 ft | 456 kts | 224° |
| 2026-04-21 17:56 | 39.86864 | 17.22591 | 28872 ft | 453 kts | 224° |
| 2026-04-21 17:56 | 39.84398 | 17.20051 | 29431 ft | 450 kts | 224° |
| 2026-04-21 17:57 | 39.81948 | 17.17527 | 29871 ft | 450 kts | 224° |
| 2026-04-21 17:57 | 39.79487 | 17.14991 | 29876 ft | 452 kts | 224° |
| 2026-04-21 17:57 | 39.74567 | 17.09932 | 29899 ft | 449 kts | 224° |
| 2026-04-21 17:58 | 39.69674 | 17.04912 | 29904 ft | 448 kts | 224° |
| 2026-04-21 17:58 | 39.64756 | 16.99871 | 30283 ft | 452 kts | 224° |
| 2026-04-21 17:59 | 39.62295 | 16.97355 | 30812 ft | 447 kts | 224° |
| 2026-04-21 17:59 | 39.59846 | 16.94854 | 30926 ft | 449 kts | 224° |
| 2026-04-21 17:59 | 39.54953 | 16.89862 | 30945 ft | 445 kts | 224° |
| 2026-04-21 18:00 | 39.50091 | 16.84911 | 30955 ft | 444 kts | 224° |
| 2026-04-21 18:00 | 39.45245 | 16.79980 | 30971 ft | 443 kts | 224° |
| 2026-04-21 18:01 | 39.40390 | 16.75053 | 30961 ft | 443 kts | 224° |
| 2026-04-21 18:01 | 39.35579 | 16.70181 | 30983 ft | 442 kts | 224° |
| 2026-04-21 18:02 | 39.30735 | 16.65281 | 30993 ft | 442 kts | 224° |
| 2026-04-21 18:02 | 39.25883 | 16.60380 | 30989 ft | 443 kts | 224° |
| 2026-04-21 18:03 | 39.21020 | 16.55481 | 30989 ft | 444 kts | 224° |
| 2026-04-21 18:03 | 39.16136 | 16.50568 | 30995 ft | 445 kts | 224° |
| 2026-04-21 18:04 | 39.11245 | 16.45655 | 30982 ft | 446 kts | 223° |
| 2026-04-21 18:04 | 39.06727 | 16.40276 | 30968 ft | 438 kts | 236° |
| 2026-04-21 18:05 | 39.03383 | 16.33817 | 30956 ft | 433 kts | 243° |
| 2026-04-21 18:05 | 39.00188 | 16.27247 | 30926 ft | 434 kts | 243° |
| 2026-04-21 18:06 | 38.96965 | 16.20692 | 30568 ft | 431 kts | 242° |
| 2026-04-21 18:06 | 38.95356 | 16.17449 | 30332 ft | 431 kts | 242° |
| 2026-04-21 18:06 | 38.93737 | 16.14195 | 30088 ft | 433 kts | 242° |
| 2026-04-21 18:07 | 38.92126 | 16.10962 | 29963 ft | 436 kts | 242° |
| 2026-04-21 18:07 | 38.90490 | 16.07687 | 29921 ft | 435 kts | 242° |
| 2026-04-21 18:07 | 38.87224 | 16.01162 | 29336 ft | 440 kts | 242° |
| 2026-04-21 18:08 | 38.85566 | 15.97848 | 28403 ft | 440 kts | 242° |
| 2026-04-21 18:08 | 38.83907 | 15.94540 | 27260 ft | 441 kts | 242° |
| 2026-04-21 18:08 | 38.82246 | 15.91232 | 26095 ft | 442 kts | 242° |
| 2026-04-21 18:08 | 38.80586 | 15.87929 | 25154 ft | 438 kts | 241° |
| 2026-04-21 18:09 | 38.78941 | 15.84663 | 24238 ft | 433 kts | 241° |
| 2026-04-21 18:09 | 38.77316 | 15.81440 | 23355 ft | 428 kts | 241° |
| 2026-04-21 18:09 | 38.76251 | 15.79329 | 22774 ft | 424 kts | 241° |
| 2026-04-21 18:09 | 38.74123 | 15.75110 | 21609 ft | 418 kts | 241° |
| 2026-04-21 18:10 | 38.72554 | 15.72003 | 20743 ft | 413 kts | 241° |
| 2026-04-21 18:10 | 38.71003 | 15.68935 | 19893 ft | 408 kts | 241° |
| 2026-04-21 18:10 | 38.69470 | 15.65905 | 19033 ft | 403 kts | 241° |
| 2026-04-21 18:10 | 38.67953 | 15.62907 | 18184 ft | 398 kts | 240° |
| 2026-04-21 18:11 | 38.66477 | 15.59993 | 17355 ft | 393 kts | 240° |
| 2026-04-21 18:11 | 38.64997 | 15.57074 | 16519 ft | 389 kts | 240° |
| 2026-04-21 18:11 | 38.63528 | 15.54181 | 15558 ft | 387 kts | 240° |
| 2026-04-21 18:11 | 38.62069 | 15.51306 | 14683 ft | 384 kts | 240° |
| 2026-04-21 18:12 | 38.60620 | 15.48458 | 13845 ft | 380 kts | 240° |
| 2026-04-21 18:12 | 38.59188 | 15.45643 | 13028 ft | 375 kts | 240° |
| 2026-04-21 18:12 | 38.57772 | 15.42863 | 12237 ft | 371 kts | 239° |
| 2026-04-21 18:12 | 38.56372 | 15.40118 | 11457 ft | 366 kts | 239° |
| 2026-04-21 18:13 | 38.54988 | 15.37413 | 10709 ft | 362 kts | 237° |
| 2026-04-21 18:13 | 38.53936 | 15.35813 | 10643 ft | 350 kts | 225° |
| 2026-04-21 18:13 | 38.51217 | 15.33781 | 10430 ft | 333 kts | 200° |
| 2026-04-21 18:13 | 38.48973 | 15.33345 | 10339 ft | 321 kts | 182° |
| 2026-04-21 18:14 | 38.44745 | 15.34622 | 10107 ft | 314 kts | 153° |
| 2026-04-21 18:14 | 38.43483 | 15.35553 | 10025 ft | 305 kts | 150° |
| 2026-04-21 18:14 | 38.41723 | 15.36974 | 9863 ft | 295 kts | 149° |
| 2026-04-21 18:15 | 38.39457 | 15.38856 | 9373 ft | 292 kts | 148° |
| 2026-04-21 18:15 | 38.38308 | 15.39809 | 9131 ft | 291 kts | 148° |
| 2026-04-21 18:15 | 38.36618 | 15.41202 | 8767 ft | 289 kts | 149° |
| 2026-04-21 18:15 | 38.34956 | 15.42562 | 8404 ft | 286 kts | 149° |
| 2026-04-21 18:16 | 38.33282 | 15.43924 | 8036 ft | 285 kts | 149° |
| 2026-04-21 18:16 | 38.31614 | 15.45277 | 7668 ft | 283 kts | 149° |
| 2026-04-21 18:16 | 38.29958 | 15.46615 | 7303 ft | 281 kts | 149° |
| 2026-04-21 18:16 | 38.28315 | 15.47942 | 6956 ft | 279 kts | 149° |
| 2026-04-21 18:17 | 38.26689 | 15.49253 | 6659 ft | 274 kts | 149° |
| 2026-04-21 18:17 | 38.25121 | 15.50517 | 6568 ft | 257 kts | 149° |
| 2026-04-21 18:17 | 38.23663 | 15.51692 | 6441 ft | 238 kts | 149° |
| 2026-04-21 18:17 | 38.22326 | 15.52767 | 6285 ft | 216 kts | 149° |
| 2026-04-21 18:18 | 38.21131 | 15.53728 | 6143 ft | 196 kts | 149° |
| 2026-04-21 18:18 | 38.20039 | 15.54608 | 6001 ft | 173 kts | 149° |
| 2026-04-21 18:18 | 38.19068 | 15.55389 | 5551 ft | 167 kts | 150° |
| 2026-04-21 18:18 | 38.18043 | 15.56209 | 4654 ft | 176 kts | 150° |
| 2026-04-21 18:19 | 38.16996 | 15.57049 | 3725 ft | 183 kts | 152° |
| 2026-04-21 18:19 | 38.15892 | 15.57931 | 2768 ft | 190 kts | 152° |
| 2026-04-21 18:19 | 38.14780 | 15.58821 | 1816 ft | 187 kts | 147° |
| 2026-04-21 18:19 | 38.13729 | 15.59664 | 1378 ft | 167 kts | 146° |
| 2026-04-21 18:20 | 38.12829 | 15.60387 | 1217 ft | 141 kts | 147° |
| 2026-04-21 18:20 | 38.12047 | 15.61044 | 922 ft | 132 kts | 144° |
| 2026-04-21 18:20 | 38.11344 | 15.61740 | 662 ft | 130 kts | 139° |
| 2026-04-21 18:20 | 38.10658 | 15.62469 | 572 ft | 130 kts | 141° |
| 2026-04-21 18:21 | 38.09948 | 15.63174 | 507 ft | 125 kts | 142° |
| 2026-04-21 18:21 | 38.09205 | 15.63822 | 373 ft | 138 kts | 152° |
| 2026-04-21 18:21 | 38.08350 | 15.64366 | 191 ft | 133 kts | 152° |
| 2026-04-21 18:21 | 38.07570 | 15.64867 | 69 ft | 107 kts | 153° |
| 2026-04-21 18:22 | 38.07202 | 15.65106 | 57 ft | 18 kts | 153° |
| 2026-04-21 18:22 | 38.07114 | 15.65163 | 53 ft | 9 kts | 121° |
| 2026-04-21 18:22 | 38.07091 | 15.65237 | 52 ft | 9 kts | 111° |
| 2026-04-21 18:22 | 38.07070 | 15.65310 | 56 ft | 9 kts | 110° |
| 2026-04-21 18:23 | 38.07056 | 15.65382 | 56 ft | 8 kts | 83° |
| 2026-04-21 18:23 | 38.07104 | 15.65402 | 48 ft | 9 kts | 338° |
| 2026-04-21 18:23 | 38.07159 | 15.65365 | 52 ft | 9 kts | 333° |
| 2026-04-21 18:23 | 38.07212 | 15.65331 | 51 ft | 8 kts | 333° |
| 2026-04-21 18:24 | 38.07264 | 15.65297 | 50 ft | 8 kts | 332° |
| 2026-04-21 18:24 | 38.07293 | 15.65293 | 51 ft | 3 kts | 34° |
| 2026-04-21 18:24 | 38.07305 | 15.65314 | 57 ft | 3 kts | 54° |
| 2026-04-21 18:24 | 38.07315 | 15.65330 | 56 ft | 0 kts | 53° |